sensor_id;sensor_type;location;lat;lon;timestamp;P1;durP1;ratioP1;P2;durP2;ratioP2
4355;SDS011;64374;51.482;7.408;2023-12-22T00:01:42;22.40;;;2.53;;
4355;SDS011;64374;51.482;7.408;2023-12-22T00:04:10;8.07;;;2.07;;
4355;SDS011;64374;51.482;7.408;2023-12-22T00:06:41;5.50;;;1.70;;
4355;SDS011;64374;51.482;7.408;2023-12-22T00:09:09;7.23;;;1.70;;
4355;SDS011;64374;51.482;7.408;2023-12-22T00:11:37;14.47;;;2.10;;
4355;SDS011;64374;51.482;7.408;2023-12-22T00:14:07;4.70;;;1.30;;
4355;SDS011;64374;51.482;7.408;2023-12-22T00:16:36;7.93;;;2.00;;
4355;SDS011;64374;51.482;7.408;2023-12-22T00:19:07;7.77;;;2.40;;
4355;SDS011;64374;51.482;7.408;2023-12-22T00:21:35;6.33;;;2.77;;
4355;SDS011;64374;51.482;7.408;2023-12-22T00:24:04;7.77;;;1.80;;
4355;SDS011;64374;51.482;7.408;2023-12-22T00:26:34;3.50;;;1.60;;
4355;SDS011;64374;51.482;7.408;2023-12-22T00:29:02;7.90;;;2.47;;
4355;SDS011;64374;51.482;7.408;2023-12-22T00:31:34;7.50;;;2.30;;
4355;SDS011;64374;51.482;7.408;2023-12-22T00:34:03;12.33;;;2.67;;
4355;SDS011;64374;51.482;7.408;2023-12-22T00:36:31;9.00;;;2.20;;
4355;SDS011;64374;51.482;7.408;2023-12-22T00:38:59;8.07;;;2.40;;
4355;SDS011;64374;51.482;7.408;2023-12-22T00:41:30;4.83;;;2.03;;
4355;SDS011;64374;51.482;7.408;2023-12-22T00:43:58;11.03;;;2.57;;
4355;SDS011;64374;51.482;7.408;2023-12-22T00:46:30;8.00;;;2.43;;
4355;SDS011;64374;51.482;7.408;2023-12-22T00:49:00;7.03;;;2.57;;
4355;SDS011;64374;51.482;7.408;2023-12-22T00:51:28;14.40;;;3.00;;
4355;SDS011;64374;51.482;7.408;2023-12-22T00:53:56;12.50;;;2.67;;
4355;SDS011;64374;51.482;7.408;2023-12-22T00:56:24;14.13;;;2.77;;
4355;SDS011;64374;51.482;7.408;2023-12-22T00:58:55;12.37;;;2.10;;
4355;SDS011;64374;51.482;7.408;2023-12-22T01:01:36;10.87;;;2.33;;
4355;SDS011;64374;51.482;7.408;2023-12-22T01:04:08;7.60;;;2.13;;
4355;SDS011;64374;51.482;7.408;2023-12-22T01:06:37;9.80;;;1.97;;
4355;SDS011;64374;51.482;7.408;2023-12-22T01:09:08;8.03;;;1.93;;
4355;SDS011;64374;51.482;7.408;2023-12-22T01:11:39;7.97;;;1.70;;
4355;SDS011;64374;51.482;7.408;2023-12-22T01:14:07;14.00;;;2.93;;
4355;SDS011;64374;51.482;7.408;2023-12-22T01:16:35;6.80;;;1.80;;
4355;SDS011;64374;51.482;7.408;2023-12-22T01:19:06;6.20;;;1.87;;
4355;SDS011;64374;51.482;7.408;2023-12-22T01:21:37;5.10;;;2.10;;
4355;SDS011;64374;51.482;7.408;2023-12-22T01:24:05;12.33;;;2.37;;
4355;SDS011;64374;51.482;7.408;2023-12-22T01:26:55;14.17;;;2.20;;
4355;SDS011;64374;51.482;7.408;2023-12-22T01:29:42;9.97;;;2.90;;
4355;SDS011;64374;51.482;7.408;2023-12-22T01:32:29;10.80;;;2.00;;
4355;SDS011;64374;51.482;7.408;2023-12-22T01:35:21;18.03;;;2.17;;
4355;SDS011;64374;51.482;7.408;2023-12-22T01:38:07;15.37;;;2.47;;
4355;SDS011;64374;51.482;7.408;2023-12-22T01:40:54;6.97;;;1.30;;
4355;SDS011;64374;51.482;7.408;2023-12-22T01:43:41;17.07;;;2.70;;
4355;SDS011;64374;51.482;7.408;2023-12-22T01:46:28;12.07;;;2.10;;
4355;SDS011;64374;51.482;7.408;2023-12-22T01:49:19;12.00;;;2.27;;
4355;SDS011;64374;51.482;7.408;2023-12-22T01:52:08;8.23;;;2.17;;
4355;SDS011;64374;51.482;7.408;2023-12-22T01:54:56;12.33;;;2.50;;
4355;SDS011;64374;51.482;7.408;2023-12-22T01:57:43;8.00;;;2.53;;
4355;SDS011;64374;51.482;7.408;2023-12-22T02:00:31;14.63;;;2.67;;
4355;SDS011;64374;51.482;7.408;2023-12-22T02:03:19;7.47;;;1.70;;
4355;SDS011;64374;51.482;7.408;2023-12-22T02:05:49;11.17;;;2.33;;
4355;SDS011;64374;51.482;7.408;2023-12-22T02:08:19;8.23;;;2.03;;
4355;SDS011;64374;51.482;7.408;2023-12-22T02:11:08;8.17;;;1.60;;
4355;SDS011;64374;51.482;7.408;2023-12-22T02:14:02;9.43;;;1.87;;
4355;SDS011;64374;51.482;7.408;2023-12-22T02:16:50;4.23;;;1.67;;
4355;SDS011;64374;51.482;7.408;2023-12-22T02:19:42;3.07;;;1.30;;
4355;SDS011;64374;51.482;7.408;2023-12-22T02:22:31;6.83;;;1.20;;
4355;SDS011;64374;51.482;7.408;2023-12-22T02:25:18;3.90;;;1.40;;
4355;SDS011;64374;51.482;7.408;2023-12-22T02:28:05;6.17;;;1.50;;
4355;SDS011;64374;51.482;7.408;2023-12-22T02:30:56;3.90;;;1.00;;
4355;SDS011;64374;51.482;7.408;2023-12-22T02:33:48;6.40;;;1.10;;
4355;SDS011;64374;51.482;7.408;2023-12-22T02:36:42;8.33;;;1.90;;
4355;SDS011;64374;51.482;7.408;2023-12-22T02:39:13;7.03;;;1.70;;
4355;SDS011;64374;51.482;7.408;2023-12-22T02:41:42;4.00;;;1.30;;
4355;SDS011;64374;51.482;7.408;2023-12-22T02:44:11;5.77;;;1.40;;
4355;SDS011;64374;51.482;7.408;2023-12-22T02:46:39;5.80;;;2.13;;
4355;SDS011;64374;51.482;7.408;2023-12-22T02:49:10;7.47;;;2.00;;
4355;SDS011;64374;51.482;7.408;2023-12-22T02:51:40;3.90;;;1.40;;
4355;SDS011;64374;51.482;7.408;2023-12-22T02:54:08;3.90;;;1.60;;
4355;SDS011;64374;51.482;7.408;2023-12-22T02:56:37;3.90;;;1.50;;
4355;SDS011;64374;51.482;7.408;2023-12-22T02:59:06;10.43;;;1.53;;
4355;SDS011;64374;51.482;7.408;2023-12-22T03:01:37;5.40;;;1.40;;
4355;SDS011;64374;51.482;7.408;2023-12-22T03:04:05;3.50;;;1.40;;
4355;SDS011;64374;51.482;7.408;2023-12-22T03:06:33;4.73;;;1.93;;
4355;SDS011;64374;51.482;7.408;2023-12-22T03:09:02;10.03;;;2.00;;
4355;SDS011;64374;51.482;7.408;2023-12-22T03:11:30;9.27;;;1.63;;
4355;SDS011;64374;51.482;7.408;2023-12-22T03:14:00;4.57;;;1.53;;
4355;SDS011;64374;51.482;7.408;2023-12-22T03:16:28;8.13;;;1.27;;
4355;SDS011;64374;51.482;7.408;2023-12-22T03:18:57;5.70;;;1.30;;
4355;SDS011;64374;51.482;7.408;2023-12-22T03:21:28;5.90;;;1.63;;
4355;SDS011;64374;51.482;7.408;2023-12-22T03:23:58;9.73;;;1.93;;
4355;SDS011;64374;51.482;7.408;2023-12-22T03:26:29;4.47;;;1.50;;
4355;SDS011;64374;51.482;7.408;2023-12-22T03:28:57;12.20;;;1.53;;
4355;SDS011;64374;51.482;7.408;2023-12-22T03:31:29;4.83;;;1.50;;
4355;SDS011;64374;51.482;7.408;2023-12-22T03:33:57;7.40;;;1.67;;
4355;SDS011;64374;51.482;7.408;2023-12-22T03:36:26;6.10;;;1.77;;
4355;SDS011;64374;51.482;7.408;2023-12-22T03:38:54;9.27;;;2.03;;
4355;SDS011;64374;51.482;7.408;2023-12-22T03:41:40;4.57;;;1.70;;
4355;SDS011;64374;51.482;7.408;2023-12-22T03:44:30;8.57;;;2.30;;
4355;SDS011;64374;51.482;7.408;2023-12-22T03:47:18;13.43;;;3.30;;
4355;SDS011;64374;51.482;7.408;2023-12-22T03:50:05;3.90;;;1.67;;
4355;SDS011;64374;51.482;7.408;2023-12-22T03:52:53;12.00;;;1.73;;
4355;SDS011;64374;51.482;7.408;2023-12-22T03:55:39;7.27;;;1.67;;
4355;SDS011;64374;51.482;7.408;2023-12-22T03:58:28;5.43;;;1.53;;
4355;SDS011;64374;51.482;7.408;2023-12-22T04:01:15;13.00;;;1.80;;
4355;SDS011;64374;51.482;7.408;2023-12-22T04:04:05;12.80;;;1.80;;
4355;SDS011;64374;51.482;7.408;2023-12-22T04:06:53;8.27;;;1.87;;
4355;SDS011;64374;51.482;7.408;2023-12-22T04:09:39;10.10;;;2.10;;
4355;SDS011;64374;51.482;7.408;2023-12-22T04:12:29;11.00;;;2.70;;
4355;SDS011;64374;51.482;7.408;2023-12-22T04:15:15;8.37;;;2.10;;
4355;SDS011;64374;51.482;7.408;2023-12-22T04:18:02;13.60;;;2.30;;
4355;SDS011;64374;51.482;7.408;2023-12-22T04:21:07;5.00;;;1.97;;
4355;SDS011;64374;51.482;7.408;2023-12-22T04:23:53;2.40;;;1.10;;
4355;SDS011;64374;51.482;7.408;2023-12-22T04:26:39;4.37;;;1.40;;
4355;SDS011;64374;51.482;7.408;2023-12-22T04:29:29;4.33;;;1.30;;
4355;SDS011;64374;51.482;7.408;2023-12-22T04:32:15;3.50;;;1.30;;
4355;SDS011;64374;51.482;7.408;2023-12-22T04:35:02;2.10;;;1.03;;
4355;SDS011;64374;51.482;7.408;2023-12-22T04:37:54;3.90;;;0.80;;
4355;SDS011;64374;51.482;7.408;2023-12-22T04:40:44;2.30;;;1.07;;
4355;SDS011;64374;51.482;7.408;2023-12-22T04:43:31;1.30;;;0.60;;
4355;SDS011;64374;51.482;7.408;2023-12-22T04:46:19;4.87;;;2.03;;
4355;SDS011;64374;51.482;7.408;2023-12-22T04:49:06;5.33;;;1.10;;
4355;SDS011;64374;51.482;7.408;2023-12-22T04:51:53;3.50;;;1.40;;
4355;SDS011;64374;51.482;7.408;2023-12-22T04:54:45;11.33;;;2.07;;
4355;SDS011;64374;51.482;7.408;2023-12-22T04:57:33;6.33;;;1.30;;
4355;SDS011;64374;51.482;7.408;2023-12-22T05:00:23;6.20;;;1.20;;
4355;SDS011;64374;51.482;7.408;2023-12-22T05:03:10;5.37;;;1.13;;
4355;SDS011;64374;51.482;7.408;2023-12-22T05:06:00;4.33;;;1.30;;
4355;SDS011;64374;51.482;7.408;2023-12-22T05:08:48;4.33;;;1.20;;
4355;SDS011;64374;51.482;7.408;2023-12-22T05:11:36;2.67;;;0.90;;
4355;SDS011;64374;51.482;7.408;2023-12-22T05:14:24;4.60;;;1.80;;
4355;SDS011;64374;51.482;7.408;2023-12-22T05:17:18;5.80;;;1.60;;
4355;SDS011;64374;51.482;7.408;2023-12-22T05:20:07;7.83;;;1.70;;
4355;SDS011;64374;51.482;7.408;2023-12-22T05:22:55;9.20;;;2.00;;
4355;SDS011;64374;51.482;7.408;2023-12-22T05:25:41;3.77;;;1.10;;
4355;SDS011;64374;51.482;7.408;2023-12-22T05:28:29;6.07;;;1.57;;
4355;SDS011;64374;51.482;7.408;2023-12-22T05:31:18;6.30;;;1.37;;
4355;SDS011;64374;51.482;7.408;2023-12-22T05:34:16;7.40;;;2.27;;
4355;SDS011;64374;51.482;7.408;2023-12-22T05:37:02;6.93;;;1.60;;
4355;SDS011;64374;51.482;7.408;2023-12-22T05:39:49;8.73;;;1.77;;
4355;SDS011;64374;51.482;7.408;2023-12-22T05:42:38;9.30;;;1.97;;
4355;SDS011;64374;51.482;7.408;2023-12-22T05:45:25;8.83;;;2.03;;
4355;SDS011;64374;51.482;7.408;2023-12-22T05:48:12;6.17;;;1.80;;
4355;SDS011;64374;51.482;7.408;2023-12-22T05:50:59;8.00;;;1.70;;
4355;SDS011;64374;51.482;7.408;2023-12-22T05:53:50;7.40;;;2.13;;
4355;SDS011;64374;51.482;7.408;2023-12-22T05:56:45;5.77;;;1.30;;
4355;SDS011;64374;51.482;7.408;2023-12-22T05:59:32;6.10;;;1.33;;
4355;SDS011;64374;51.482;7.408;2023-12-22T06:02:20;10.70;;;2.53;;
4355;SDS011;64374;51.482;7.408;2023-12-22T06:05:07;7.60;;;2.17;;
4355;SDS011;64374;51.482;7.408;2023-12-22T06:07:57;8.63;;;2.07;;
4355;SDS011;64374;51.482;7.408;2023-12-22T06:10:43;5.10;;;1.90;;
4355;SDS011;64374;51.482;7.408;2023-12-22T06:13:33;13.63;;;3.10;;
4355;SDS011;64374;51.482;7.408;2023-12-22T06:16:20;11.50;;;2.77;;
4355;SDS011;64374;51.482;7.408;2023-12-22T06:19:09;7.70;;;2.00;;
4355;SDS011;64374;51.482;7.408;2023-12-22T06:21:58;7.07;;;2.10;;
4355;SDS011;64374;51.482;7.408;2023-12-22T06:24:46;9.83;;;1.73;;
4355;SDS011;64374;51.482;7.408;2023-12-22T06:27:35;8.57;;;1.87;;
4355;SDS011;64374;51.482;7.408;2023-12-22T06:30:24;12.60;;;3.13;;
4355;SDS011;64374;51.482;7.408;2023-12-22T06:33:11;10.53;;;2.73;;
4355;SDS011;64374;51.482;7.408;2023-12-22T06:36:00;19.13;;;2.70;;
4355;SDS011;64374;51.482;7.408;2023-12-22T06:38:46;8.27;;;2.90;;
4355;SDS011;64374;51.482;7.408;2023-12-22T06:41:34;11.47;;;2.30;;
4355;SDS011;64374;51.482;7.408;2023-12-22T06:44:20;14.10;;;2.77;;
4355;SDS011;64374;51.482;7.408;2023-12-22T06:47:07;10.60;;;2.50;;
4355;SDS011;64374;51.482;7.408;2023-12-22T06:49:54;13.33;;;3.07;;
4355;SDS011;64374;51.482;7.408;2023-12-22T06:52:44;13.90;;;3.37;;
4355;SDS011;64374;51.482;7.408;2023-12-22T06:55:31;12.43;;;2.83;;
4355;SDS011;64374;51.482;7.408;2023-12-22T06:58:21;11.03;;;3.30;;
4355;SDS011;64374;51.482;7.408;2023-12-22T07:01:10;10.83;;;2.87;;
4355;SDS011;64374;51.482;7.408;2023-12-22T07:03:59;7.67;;;3.10;;
4355;SDS011;64374;51.482;7.408;2023-12-22T07:06:46;12.50;;;3.87;;
4355;SDS011;64374;51.482;7.408;2023-12-22T07:09:34;12.60;;;2.27;;
4355;SDS011;64374;51.482;7.408;2023-12-22T07:12:24;13.47;;;2.37;;
4355;SDS011;64374;51.482;7.408;2023-12-22T07:15:13;4.07;;;1.90;;
4355;SDS011;64374;51.482;7.408;2023-12-22T07:18:00;14.20;;;2.90;;
4355;SDS011;64374;51.482;7.408;2023-12-22T07:20:48;11.67;;;2.20;;
4355;SDS011;64374;51.482;7.408;2023-12-22T07:23:34;10.53;;;1.97;;
4355;SDS011;64374;51.482;7.408;2023-12-22T07:26:22;13.10;;;3.07;;
4355;SDS011;64374;51.482;7.408;2023-12-22T07:29:09;17.27;;;2.40;;
4355;SDS011;64374;51.482;7.408;2023-12-22T07:32:09;11.23;;;2.77;;
4355;SDS011;64374;51.482;7.408;2023-12-22T07:34:56;12.43;;;2.77;;
4355;SDS011;64374;51.482;7.408;2023-12-22T07:37:45;12.57;;;1.97;;
4355;SDS011;64374;51.482;7.408;2023-12-22T07:40:33;11.70;;;3.00;;
4355;SDS011;64374;51.482;7.408;2023-12-22T07:43:27;5.00;;;2.70;;
4355;SDS011;64374;51.482;7.408;2023-12-22T07:46:18;11.90;;;2.83;;
4355;SDS011;64374;51.482;7.408;2023-12-22T07:49:05;10.80;;;3.40;;
4355;SDS011;64374;51.482;7.408;2023-12-22T07:51:51;18.73;;;4.13;;
4355;SDS011;64374;51.482;7.408;2023-12-22T07:54:38;21.83;;;3.23;;
4355;SDS011;64374;51.482;7.408;2023-12-22T07:57:33;10.10;;;2.50;;
4355;SDS011;64374;51.482;7.408;2023-12-22T08:00:24;8.93;;;2.80;;
4355;SDS011;64374;51.482;7.408;2023-12-22T08:03:11;9.27;;;2.10;;
4355;SDS011;64374;51.482;7.408;2023-12-22T08:05:58;7.50;;;3.00;;
4355;SDS011;64374;51.482;7.408;2023-12-22T08:08:45;19.80;;;3.77;;
4355;SDS011;64374;51.482;7.408;2023-12-22T08:11:31;8.17;;;2.33;;
4355;SDS011;64374;51.482;7.408;2023-12-22T08:14:21;16.10;;;3.33;;
4355;SDS011;64374;51.482;7.408;2023-12-22T08:17:14;11.27;;;2.60;;
4355;SDS011;64374;51.482;7.408;2023-12-22T08:20:01;16.77;;;3.77;;
4355;SDS011;64374;51.482;7.408;2023-12-22T08:22:57;23.13;;;3.30;;
4355;SDS011;64374;51.482;7.408;2023-12-22T08:25:56;14.20;;;3.23;;
4355;SDS011;64374;51.482;7.408;2023-12-22T08:28:43;13.43;;;3.93;;
4355;SDS011;64374;51.482;7.408;2023-12-22T08:31:30;10.13;;;2.63;;
4355;SDS011;64374;51.482;7.408;2023-12-22T08:34:18;18.43;;;3.63;;
4355;SDS011;64374;51.482;7.408;2023-12-22T08:37:05;14.30;;;3.90;;
4355;SDS011;64374;51.482;7.408;2023-12-22T08:39:51;21.40;;;3.73;;
4355;SDS011;64374;51.482;7.408;2023-12-22T08:42:41;19.67;;;3.83;;
4355;SDS011;64374;51.482;7.408;2023-12-22T08:45:28;13.00;;;4.37;;
4355;SDS011;64374;51.482;7.408;2023-12-22T08:48:14;13.13;;;3.70;;
4355;SDS011;64374;51.482;7.408;2023-12-22T08:51:05;19.47;;;4.60;;
4355;SDS011;64374;51.482;7.408;2023-12-22T08:53:54;18.90;;;4.53;;
4355;SDS011;64374;51.482;7.408;2023-12-22T08:56:41;18.20;;;5.30;;
4355;SDS011;64374;51.482;7.408;2023-12-22T08:59:27;21.77;;;4.23;;
4355;SDS011;64374;51.482;7.408;2023-12-22T09:02:14;19.03;;;4.47;;
4355;SDS011;64374;51.482;7.408;2023-12-22T09:05:01;21.70;;;6.43;;
4355;SDS011;64374;51.482;7.408;2023-12-22T09:07:49;21.27;;;5.23;;
4355;SDS011;64374;51.482;7.408;2023-12-22T09:10:36;15.40;;;5.00;;
4355;SDS011;64374;51.482;7.408;2023-12-22T09:13:23;20.50;;;4.67;;
4355;SDS011;64374;51.482;7.408;2023-12-22T09:16:11;25.77;;;5.63;;
4355;SDS011;64374;51.482;7.408;2023-12-22T09:19:00;22.30;;;5.60;;
4355;SDS011;64374;51.482;7.408;2023-12-22T09:21:46;23.67;;;6.20;;
4355;SDS011;64374;51.482;7.408;2023-12-22T09:24:35;23.30;;;5.60;;
4355;SDS011;64374;51.482;7.408;2023-12-22T09:27:21;21.53;;;6.70;;
4355;SDS011;64374;51.482;7.408;2023-12-22T09:30:10;20.07;;;5.53;;
4355;SDS011;64374;51.482;7.408;2023-12-22T09:32:59;28.67;;;7.43;;
4355;SDS011;64374;51.482;7.408;2023-12-22T09:35:47;20.07;;;4.73;;
4355;SDS011;64374;51.482;7.408;2023-12-22T09:38:34;26.80;;;5.30;;
4355;SDS011;64374;51.482;7.408;2023-12-22T09:41:23;20.77;;;4.43;;
4355;SDS011;64374;51.482;7.408;2023-12-22T09:44:16;22.47;;;5.03;;
4355;SDS011;64374;51.482;7.408;2023-12-22T09:47:08;17.43;;;4.50;;
4355;SDS011;64374;51.482;7.408;2023-12-22T09:49:59;18.57;;;3.80;;
4355;SDS011;64374;51.482;7.408;2023-12-22T09:52:46;9.80;;;3.60;;
4355;SDS011;64374;51.482;7.408;2023-12-22T09:55:33;19.90;;;5.13;;
4355;SDS011;64374;51.482;7.408;2023-12-22T09:58:22;15.63;;;4.03;;
4355;SDS011;64374;51.482;7.408;2023-12-22T10:01:08;15.67;;;3.43;;
4355;SDS011;64374;51.482;7.408;2023-12-22T10:03:56;16.77;;;4.07;;
4355;SDS011;64374;51.482;7.408;2023-12-22T10:06:44;18.03;;;4.83;;
4355;SDS011;64374;51.482;7.408;2023-12-22T10:09:34;13.77;;;3.80;;
4355;SDS011;64374;51.482;7.408;2023-12-22T10:12:22;19.50;;;4.00;;
4355;SDS011;64374;51.482;7.408;2023-12-22T10:15:13;10.90;;;3.43;;
4355;SDS011;64374;51.482;7.408;2023-12-22T10:18:04;9.60;;;2.87;;
4355;SDS011;64374;51.482;7.408;2023-12-22T10:20:33;12.00;;;3.40;;
4355;SDS011;64374;51.482;7.408;2023-12-22T10:23:06;12.73;;;3.70;;
4355;SDS011;64374;51.482;7.408;2023-12-22T10:25:36;7.50;;;2.30;;
4355;SDS011;64374;51.482;7.408;2023-12-22T10:28:12;8.83;;;2.73;;
4355;SDS011;64374;51.482;7.408;2023-12-22T10:30:43;14.40;;;3.67;;
4355;SDS011;64374;51.482;7.408;2023-12-22T10:33:15;9.97;;;3.10;;
4355;SDS011;64374;51.482;7.408;2023-12-22T10:35:46;8.70;;;3.30;;
4355;SDS011;64374;51.482;7.408;2023-12-22T10:38:17;9.40;;;3.63;;
4355;SDS011;64374;51.482;7.408;2023-12-22T10:40:46;12.73;;;3.73;;
4355;SDS011;64374;51.482;7.408;2023-12-22T10:43:15;7.97;;;3.33;;
4355;SDS011;64374;51.482;7.408;2023-12-22T10:45:47;10.37;;;2.93;;
4355;SDS011;64374;51.482;7.408;2023-12-22T10:48:17;10.57;;;3.60;;
4355;SDS011;64374;51.482;7.408;2023-12-22T10:50:47;11.20;;;3.57;;
4355;SDS011;64374;51.482;7.408;2023-12-22T10:53:16;11.30;;;4.40;;
4355;SDS011;64374;51.482;7.408;2023-12-22T10:55:46;8.10;;;3.10;;
4355;SDS011;64374;51.482;7.408;2023-12-22T10:58:19;13.63;;;3.73;;
4355;SDS011;64374;51.482;7.408;2023-12-22T11:00:54;8.77;;;3.27;;
4355;SDS011;64374;51.482;7.408;2023-12-22T11:03:23;10.10;;;3.07;;
4355;SDS011;64374;51.482;7.408;2023-12-22T11:05:55;12.10;;;3.57;;
4355;SDS011;64374;51.482;7.408;2023-12-22T11:08:26;9.67;;;3.47;;
4355;SDS011;64374;51.482;7.408;2023-12-22T11:10:58;7.97;;;3.00;;
4355;SDS011;64374;51.482;7.408;2023-12-22T11:13:35;8.40;;;3.40;;
4355;SDS011;64374;51.482;7.408;2023-12-22T11:16:18;14.50;;;3.17;;
4355;SDS011;64374;51.482;7.408;2023-12-22T11:19:07;7.47;;;2.93;;
4355;SDS011;64374;51.482;7.408;2023-12-22T11:21:54;17.27;;;3.00;;
4355;SDS011;64374;51.482;7.408;2023-12-22T11:24:44;9.23;;;2.63;;
4355;SDS011;64374;51.482;7.408;2023-12-22T11:27:33;10.40;;;2.50;;
4355;SDS011;64374;51.482;7.408;2023-12-22T11:30:20;7.63;;;2.70;;
4355;SDS011;64374;51.482;7.408;2023-12-22T11:33:11;5.97;;;1.83;;
4355;SDS011;64374;51.482;7.408;2023-12-22T11:35:59;7.30;;;2.70;;
4355;SDS011;64374;51.482;7.408;2023-12-22T11:38:50;9.97;;;1.77;;
4355;SDS011;64374;51.482;7.408;2023-12-22T11:41:39;6.30;;;2.13;;
4355;SDS011;64374;51.482;7.408;2023-12-22T11:44:27;6.13;;;1.80;;
4355;SDS011;64374;51.482;7.408;2023-12-22T11:47:14;12.30;;;1.60;;
4355;SDS011;64374;51.482;7.408;2023-12-22T11:50:10;9.57;;;1.80;;
4355;SDS011;64374;51.482;7.408;2023-12-22T11:53:04;6.07;;;1.87;;
4355;SDS011;64374;51.482;7.408;2023-12-22T11:56:07;6.93;;;1.53;;
4355;SDS011;64374;51.482;7.408;2023-12-22T11:58:54;4.33;;;1.30;;
4355;SDS011;64374;51.482;7.408;2023-12-22T12:01:44;2.70;;;1.23;;
4355;SDS011;64374;51.482;7.408;2023-12-22T12:04:40;4.87;;;1.43;;
4355;SDS011;64374;51.482;7.408;2023-12-22T12:07:38;4.00;;;1.40;;
4355;SDS011;64374;51.482;7.408;2023-12-22T12:10:50;5.40;;;1.67;;
4355;SDS011;64374;51.482;7.408;2023-12-22T12:13:41;4.20;;;1.70;;
4355;SDS011;64374;51.482;7.408;2023-12-22T12:16:32;4.47;;;1.97;;
4355;SDS011;64374;51.482;7.408;2023-12-22T12:19:23;5.53;;;1.87;;
4355;SDS011;64374;51.482;7.408;2023-12-22T12:22:11;5.27;;;1.73;;
4355;SDS011;64374;51.482;7.408;2023-12-22T12:25:09;6.77;;;1.50;;
4355;SDS011;64374;51.482;7.408;2023-12-22T12:28:13;2.83;;;1.37;;
4355;SDS011;64374;51.482;7.408;2023-12-22T12:31:04;3.23;;;1.27;;
4355;SDS011;64374;51.482;7.408;2023-12-22T12:33:53;3.73;;;1.30;;
4355;SDS011;64374;51.482;7.408;2023-12-22T12:36:42;3.70;;;1.23;;
4355;SDS011;64374;51.482;7.408;2023-12-22T12:39:38;5.40;;;1.10;;
4355;SDS011;64374;51.482;7.408;2023-12-22T12:42:31;5.10;;;1.07;;
4355;SDS011;64374;51.482;7.408;2023-12-22T12:45:22;1.43;;;0.93;;
4355;SDS011;64374;51.482;7.408;2023-12-22T12:48:09;4.40;;;1.27;;
4355;SDS011;64374;51.482;7.408;2023-12-22T12:50:40;5.07;;;1.83;;
4355;SDS011;64374;51.482;7.408;2023-12-22T12:53:08;5.67;;;2.13;;
4355;SDS011;64374;51.482;7.408;2023-12-22T12:55:39;5.00;;;2.20;;
4355;SDS011;64374;51.482;7.408;2023-12-22T12:58:09;3.00;;;1.53;;
4355;SDS011;64374;51.482;7.408;2023-12-22T13:00:37;9.27;;;2.47;;
4355;SDS011;64374;51.482;7.408;2023-12-22T13:03:05;3.60;;;1.60;;
4355;SDS011;64374;51.482;7.408;2023-12-22T13:05:34;5.43;;;2.20;;
4355;SDS011;64374;51.482;7.408;2023-12-22T13:08:07;4.90;;;1.70;;
4355;SDS011;64374;51.482;7.408;2023-12-22T13:10:39;5.87;;;2.00;;
4355;SDS011;64374;51.482;7.408;2023-12-22T13:13:10;3.90;;;1.90;;
4355;SDS011;64374;51.482;7.408;2023-12-22T13:15:59;5.17;;;2.03;;
4355;SDS011;64374;51.482;7.408;2023-12-22T13:18:48;11.30;;;2.87;;
4355;SDS011;64374;51.482;7.408;2023-12-22T13:21:17;3.90;;;1.67;;
4355;SDS011;64374;51.482;7.408;2023-12-22T13:23:48;5.00;;;1.60;;
4355;SDS011;64374;51.482;7.408;2023-12-22T13:26:38;6.17;;;1.97;;
4355;SDS011;64374;51.482;7.408;2023-12-22T13:29:11;4.30;;;1.93;;
4355;SDS011;64374;51.482;7.408;2023-12-22T13:31:41;5.87;;;1.43;;
4355;SDS011;64374;51.482;7.408;2023-12-22T13:34:13;4.07;;;1.10;;
4355;SDS011;64374;51.482;7.408;2023-12-22T13:36:42;5.40;;;1.27;;
4355;SDS011;64374;51.482;7.408;2023-12-22T13:39:11;4.73;;;1.30;;
4355;SDS011;64374;51.482;7.408;2023-12-22T13:41:39;4.13;;;1.23;;
4355;SDS011;64374;51.482;7.408;2023-12-22T13:44:13;4.00;;;1.00;;
4355;SDS011;64374;51.482;7.408;2023-12-22T13:46:41;2.17;;;1.10;;
4355;SDS011;64374;51.482;7.408;2023-12-22T13:49:15;2.83;;;1.47;;
4355;SDS011;64374;51.482;7.408;2023-12-22T13:51:45;2.37;;;1.53;;
4355;SDS011;64374;51.482;7.408;2023-12-22T13:54:14;7.07;;;1.63;;
4355;SDS011;64374;51.482;7.408;2023-12-22T13:56:44;3.60;;;1.70;;
4355;SDS011;64374;51.482;7.408;2023-12-22T13:59:14;2.80;;;1.70;;
4355;SDS011;64374;51.482;7.408;2023-12-22T14:01:45;5.97;;;1.50;;
4355;SDS011;64374;51.482;7.408;2023-12-22T14:04:13;4.13;;;1.80;;
4355;SDS011;64374;51.482;7.408;2023-12-22T14:06:41;6.30;;;2.37;;
4355;SDS011;64374;51.482;7.408;2023-12-22T14:09:09;5.70;;;1.50;;
4355;SDS011;64374;51.482;7.408;2023-12-22T14:11:38;5.50;;;1.67;;
4355;SDS011;64374;51.482;7.408;2023-12-22T14:14:20;6.07;;;2.20;;
4355;SDS011;64374;51.482;7.408;2023-12-22T14:16:54;9.63;;;2.57;;
4355;SDS011;64374;51.482;7.408;2023-12-22T14:19:22;8.30;;;1.80;;
4355;SDS011;64374;51.482;7.408;2023-12-22T14:22:12;3.90;;;1.60;;
4355;SDS011;64374;51.482;7.408;2023-12-22T14:25:01;8.20;;;2.43;;
4355;SDS011;64374;51.482;7.408;2023-12-22T14:27:32;7.33;;;2.30;;
4355;SDS011;64374;51.482;7.408;2023-12-22T14:30:06;2.07;;;1.20;;
4355;SDS011;64374;51.482;7.408;2023-12-22T14:32:36;2.33;;;1.70;;
4355;SDS011;64374;51.482;7.408;2023-12-22T14:35:05;10.27;;;2.17;;
4355;SDS011;64374;51.482;7.408;2023-12-22T14:37:32;6.00;;;1.83;;
4355;SDS011;64374;51.482;7.408;2023-12-22T14:40:19;4.40;;;1.90;;
4355;SDS011;64374;51.482;7.408;2023-12-22T14:43:06;6.53;;;1.83;;
4355;SDS011;64374;51.482;7.408;2023-12-22T14:45:54;6.00;;;1.43;;
4355;SDS011;64374;51.482;7.408;2023-12-22T14:48:46;6.50;;;1.60;;
4355;SDS011;64374;51.482;7.408;2023-12-22T14:51:36;7.63;;;1.70;;
4355;SDS011;64374;51.482;7.408;2023-12-22T14:54:22;7.50;;;2.17;;
4355;SDS011;64374;51.482;7.408;2023-12-22T14:57:11;4.23;;;1.70;;
4355;SDS011;64374;51.482;7.408;2023-12-22T14:59:59;2.67;;;1.73;;
4355;SDS011;64374;51.482;7.408;2023-12-22T15:02:50;4.40;;;1.80;;
4355;SDS011;64374;51.482;7.408;2023-12-22T15:05:45;3.40;;;1.57;;
4355;SDS011;64374;51.482;7.408;2023-12-22T15:08:35;2.70;;;1.40;;
4355;SDS011;64374;51.482;7.408;2023-12-22T15:11:23;4.37;;;1.60;;
4355;SDS011;64374;51.482;7.408;2023-12-22T15:14:09;5.63;;;1.70;;
4355;SDS011;64374;51.482;7.408;2023-12-22T15:16:56;8.30;;;1.40;;
4355;SDS011;64374;51.482;7.408;2023-12-22T15:19:44;4.60;;;1.73;;
4355;SDS011;64374;51.482;7.408;2023-12-22T15:22:31;3.37;;;1.30;;
4355;SDS011;64374;51.482;7.408;2023-12-22T15:25:19;3.80;;;1.40;;
4355;SDS011;64374;51.482;7.408;2023-12-22T15:28:08;4.13;;;1.70;;
4355;SDS011;64374;51.482;7.408;2023-12-22T15:30:55;10.50;;;2.23;;
4355;SDS011;64374;51.482;7.408;2023-12-22T15:33:44;2.50;;;0.97;;
4355;SDS011;64374;51.482;7.408;2023-12-22T15:36:33;7.20;;;1.77;;
4355;SDS011;64374;51.482;7.408;2023-12-22T15:39:23;4.63;;;1.47;;
4355;SDS011;64374;51.482;7.408;2023-12-22T15:41:51;7.90;;;1.63;;
4355;SDS011;64374;51.482;7.408;2023-12-22T15:44:19;6.00;;;1.30;;
4355;SDS011;64374;51.482;7.408;2023-12-22T15:46:50;3.20;;;1.17;;
4355;SDS011;64374;51.482;7.408;2023-12-22T15:49:18;3.20;;;1.03;;
4355;SDS011;64374;51.482;7.408;2023-12-22T15:51:48;9.73;;;1.60;;
4355;SDS011;64374;51.482;7.408;2023-12-22T15:54:19;1.77;;;1.00;;
4355;SDS011;64374;51.482;7.408;2023-12-22T15:56:49;11.03;;;1.23;;
4355;SDS011;64374;51.482;7.408;2023-12-22T15:59:17;2.97;;;1.00;;
4355;SDS011;64374;51.482;7.408;2023-12-22T16:01:46;3.47;;;1.07;;
4355;SDS011;64374;51.482;7.408;2023-12-22T16:04:17;1.77;;;0.90;;
4355;SDS011;64374;51.482;7.408;2023-12-22T16:06:46;1.87;;;1.27;;
4355;SDS011;64374;51.482;7.408;2023-12-22T16:09:16;4.10;;;1.07;;
4355;SDS011;64374;51.482;7.408;2023-12-22T16:11:44;6.63;;;1.40;;
4355;SDS011;64374;51.482;7.408;2023-12-22T16:14:12;9.33;;;1.80;;
4355;SDS011;64374;51.482;7.408;2023-12-22T16:16:40;8.80;;;1.90;;
4355;SDS011;64374;51.482;7.408;2023-12-22T16:19:09;4.90;;;1.47;;
4355;SDS011;64374;51.482;7.408;2023-12-22T16:21:44;10.33;;;2.03;;
4355;SDS011;64374;51.482;7.408;2023-12-22T16:24:24;6.70;;;1.70;;
4355;SDS011;64374;51.482;7.408;2023-12-22T16:26:54;5.90;;;2.93;;